Time;durP1;ratioP1;P1;durP2;ratioP2;P2;SDS_P1;SDS_P2;PMS_P1;PMS_P2;Temp;Humidity;BMP_temperature;BMP_pressure;BME280_temperature;BME280_humidity;BME280_pressure;Samples;Min_cycle;Max_cycle;Signal;HPM_P1;HPM_P2
2023/05/07 00:00:00;;;;;;;4.90;4.50;;;15.60;99.90;;;;;;5052916;28;20519;-74
2023/05/07 00:02:26;;;;;;;5.10;4.60;;;15.60;99.90;;;;;;5058715;28;20192;-72
2023/05/07 00:04:52;;;;;;;4.50;4.10;;;15.60;99.90;;;;;;5053963;28;20444;-72
2023/05/07 00:07:18;;;;;;;4.40;4.00;;;15.60;99.90;;;;;;5051617;28;20192;-73
2023/05/07 00:09:44;;;;;;;4.97;4.00;;;15.60;99.90;;;;;;5047493;28;20186;-73
2023/05/07 00:12:10;;;;;;;6.30;4.80;;;15.60;99.90;;;;;;5048589;28;20424;-73
2023/05/07 00:14:36;;;;;;;5.10;4.70;;;15.60;99.90;;;;;;5058063;28;20442;-72
2023/05/07 00:17:01;;;;;;;5.10;4.60;;;15.50;99.90;;;;;;5053558;28;20182;-73
2023/05/07 00:19:27;;;;;;;4.80;4.23;;;15.50;99.90;;;;;;5048780;28;20941;-73
2023/05/07 00:21:56;;;;;;;4.43;4.03;;;15.50;99.90;;;;;;5028698;28;20183;-72
2023/05/07 00:24:22;;;;;;;4.80;4.37;;;15.50;99.90;;;;;;5010666;28;20224;-73
2023/05/07 00:26:47;;;;;;;5.73;5.13;;;15.50;99.90;;;;;;5028370;28;20477;-72
2023/05/07 00:29:13;;;;;;;5.10;4.60;;;15.40;99.90;;;;;;5027257;28;20178;-72
2023/05/07 00:31:39;;;;;;;5.17;4.73;;;15.40;99.90;;;;;;5029733;28;20178;-73
2023/05/07 00:34:05;;;;;;;5.97;4.80;;;15.50;99.90;;;;;;5046981;28;20662;-73
2023/05/07 00:36:31;;;;;;;5.20;4.67;;;15.50;99.90;;;;;;5041910;28;20194;-74
2023/05/07 00:39:00;;;;;;;4.90;4.50;;;15.40;99.90;;;;;;5030324;28;20978;-73
2023/05/07 00:41:26;;;;;;;6.07;5.57;;;15.50;99.90;;;;;;5047988;28;20420;-73
2023/05/07 00:43:52;;;;;;;6.97;6.37;;;15.50;99.90;;;;;;5048014;28;20424;-74
2023/05/07 00:46:21;;;;;;;7.80;7.00;;;15.40;99.90;;;;;;5022533;28;20437;-73
2023/05/07 00:48:47;;;;;;;8.00;7.30;;;15.50;99.90;;;;;;5028333;28;20830;-73
2023/05/07 00:51:13;;;;;;;7.50;6.90;;;15.50;99.90;;;;;;5028216;28;20428;-73
2023/05/07 00:53:39;;;;;;;7.37;6.70;;;15.50;99.90;;;;;;5010462;28;20461;-72
2023/05/07 00:56:06;;;;;;;6.63;6.03;;;15.50;99.90;;;;;;5028316;28;20453;-73
2023/05/07 00:58:33;;;;;;;8.43;7.27;;;15.50;99.90;;;;;;5010357;28;20420;-72
2023/05/07 01:00:59;;;;;;;7.70;6.93;;;15.50;99.90;;;;;;5028014;28;20833;-74
2023/05/07 01:03:25;;;;;;;9.27;8.00;;;15.50;99.90;;;;;;5028152;28;20445;-73
2023/05/07 01:05:53;;;;;;;6.33;5.70;;;15.50;99.90;;;;;;5028118;28;20457;-73
2023/05/07 01:08:22;;;;;;;6.00;5.50;;;15.60;99.90;;;;;;5027929;28;20417;-73
2023/05/07 01:10:48;;;;;;;5.50;4.93;;;15.60;99.90;;;;;;5045418;28;20532;-73
2023/05/07 01:13:14;;;;;;;6.57;5.97;;;15.60;99.90;;;;;;5047873;28;20559;-73
2023/05/07 01:15:42;;;;;;;4.53;4.13;;;15.60;99.90;;;;;;5048123;28;20202;-73
2023/05/07 01:18:08;;;;;;;4.63;4.33;;;15.60;99.90;;;;;;5047775;28;20417;-73
2023/05/07 01:20:34;;;;;;;5.80;4.57;;;15.60;99.90;;;;;;5029939;28;20442;-72
2023/05/07 01:23:00;;;;;;;6.33;5.73;;;15.50;99.90;;;;;;5047940;28;20182;-72
2023/05/07 01:25:26;;;;;;;5.80;5.27;;;15.50;99.90;;;;;;5030262;28;20212;-73
2023/05/07 01:27:52;;;;;;;6.50;6.00;;;15.50;99.90;;;;;;5028394;28;20511;-72
2023/05/07 01:30:20;;;;;;;6.60;6.00;;;15.40;99.90;;;;;;5046397;28;20524;-73
2023/05/07 01:33:13;;;;;;;6.60;6.10;;;15.50;99.90;;;;;;5047778;28;20201;-72
2023/05/07 01:35:44;;;;;;;7.57;6.40;;;15.40;99.90;;;;;;5047372;28;20436;-73
2023/05/07 01:38:11;;;;;;;8.60;6.37;;;15.40;99.90;;;;;;5029866;28;20412;-73
2023/05/07 01:40:37;;;;;;;6.77;5.97;;;15.40;99.90;;;;;;5047703;28;20413;-73
2023/05/07 01:43:03;;;;;;;7.03;6.43;;;15.30;99.90;;;;;;5029766;28;20474;-73
2023/05/07 01:45:30;;;;;;;7.77;7.07;;;15.30;99.90;;;;;;5050080;28;20201;-74
2023/05/07 01:47:57;;;;;;;7.43;6.80;;;15.30;99.90;;;;;;5051126;28;20420;-72
2023/05/07 01:50:23;;;;;;;7.10;6.40;;;15.30;99.90;;;;;;5051229;28;20562;-74
2023/05/07 01:52:50;;;;;;;8.40;7.70;;;15.30;99.90;;;;;;5051064;28;20470;-73
2023/05/07 01:55:16;;;;;;;8.10;7.40;;;15.30;99.90;;;;;;5051102;28;20421;-73
2023/05/07 01:57:42;;;;;;;10.10;7.80;;;15.30;99.90;;;;;;5050892;28;20922;-74
2023/05/07 02:00:08;;;;;;;7.23;6.53;;;15.30;99.90;;;;;;5050970;28;20181;-73
2023/05/07 02:02:35;;;;;;;8.20;6.20;;;15.30;99.90;;;;;;5051129;28;20424;-73
2023/05/07 02:05:01;;;;;;;6.50;6.00;;;15.20;99.90;;;;;;5032594;28;20997;-72
2023/05/07 02:07:27;;;;;;;6.30;5.80;;;15.20;99.90;;;;;;5050944;28;20416;-73
2023/05/07 02:09:55;;;;;;;8.60;6.70;;;15.30;99.90;;;;;;5050829;28;20905;-74
2023/05/07 02:12:21;;;;;;;8.37;7.33;;;15.20;99.90;;;;;;5051002;28;20420;-72
2023/05/07 02:14:46;;;;;;;7.27;6.67;;;15.20;99.90;;;;;;5050540;28;20524;-72
2023/05/07 02:17:12;;;;;;;7.23;6.63;;;15.30;99.90;;;;;;5050536;28;20412;-74
2023/05/07 02:19:38;;;;;;;7.10;6.40;;;15.30;99.90;;;;;;5050854;28;20174;-73
2023/05/07 02:22:03;;;;;;;7.27;6.67;;;15.30;99.90;;;;;;5050961;28;20248;-73
2023/05/07 02:24:29;;;;;;;8.30;7.37;;;15.20;99.90;;;;;;5050504;28;20256;-73
2023/05/07 02:26:55;;;;;;;8.07;7.30;;;15.20;99.90;;;;;;5032583;28;20263;-73
2023/05/07 02:29:21;;;;;;;8.30;7.60;;;15.20;99.90;;;;;;5048945;28;20412;-71
2023/05/07 02:31:50;;;;;;;7.33;6.63;;;15.20;99.90;;;;;;5050682;28;20670;-73
2023/05/07 02:34:19;;;;;;;7.53;6.83;;;15.20;99.90;;;;;;5050081;28;20727;-74
2023/05/07 02:36:45;;;;;;;7.97;7.17;;;15.20;99.90;;;;;;5032354;28;20437;-73
2023/05/07 02:39:12;;;;;;;7.47;6.70;;;15.20;99.90;;;;;;5048037;28;20508;-74
2023/05/07 02:41:38;;;;;;;6.87;6.20;;;15.20;99.90;;;;;;5044608;28;20472;-74
2023/05/07 02:44:04;;;;;;;8.17;7.00;;;15.10;99.90;;;;;;5032282;28;20463;-73
2023/05/07 02:46:30;;;;;;;7.20;6.30;;;15.10;99.90;;;;;;5040552;28;20233;-72
2023/05/07 02:48:55;;;;;;;7.90;7.03;;;15.10;99.90;;;;;;5029939;28;20757;-73
2023/05/07 02:51:22;;;;;;;8.03;7.00;;;15.10;99.90;;;;;;5030134;28;20261;-74
2023/05/07 02:53:48;;;;;;;9.07;7.23;;;15.10;99.90;;;;;;5029978;28;20209;-72
2023/05/07 02:56:14;;;;;;;8.00;6.70;;;15.00;99.90;;;;;;5011718;28;20824;-73
2023/05/07 02:58:40;;;;;;;8.77;6.90;;;15.10;99.90;;;;;;5029851;28;20820;-74
2023/05/07 03:01:06;;;;;;;7.43;6.60;;;15.10;99.90;;;;;;5030072;28;20170;-74
2023/05/07 03:03:32;;;;;;;8.93;6.20;;;15.00;99.90;;;;;;5029699;28;20453;-74
2023/05/07 03:05:57;;;;;;;6.33;5.73;;;15.00;99.90;;;;;;5030170;28;20508;-72
2023/05/07 03:08:23;;;;;;;7.60;6.90;;;15.00;99.90;;;;;;5029675;28;20285;-73
2023/05/07 03:10:49;;;;;;;7.30;6.60;;;15.00;99.90;;;;;;5029495;28;20617;-73
2023/05/07 03:13:15;;;;;;;7.83;7.13;;;14.90;99.90;;;;;;5031428;28;20551;-72
2023/05/07 03:15:41;;;;;;;7.63;6.67;;;14.90;99.90;;;;;;5049934;28;20773;-72
2023/05/07 03:18:06;;;;;;;7.83;7.10;;;14.90;99.90;;;;;;5049482;28;20253;-73
2023/05/07 03:20:32;;;;;;;7.40;6.70;;;14.80;99.90;;;;;;5031625;28;20178;-73
2023/05/07 03:22:58;;;;;;;7.20;6.50;;;14.80;99.90;;;;;;5031546;28;20276;-73
2023/05/07 03:25:23;;;;;;;9.03;7.27;;;14.80;99.90;;;;;;5049422;28;20229;-74
2023/05/07 03:27:49;;;;;;;10.80;7.17;;;14.80;99.90;;;;;;5047694;28;20189;-74
2023/05/07 03:30:15;;;;;;;7.20;6.53;;;14.80;99.90;;;;;;5031461;28;20209;-73
2023/05/07 03:32:40;;;;;;;7.73;6.97;;;14.80;99.90;;;;;;5049409;28;20208;-73
2023/05/07 03:35:07;;;;;;;8.83;7.10;;;14.80;99.90;;;;;;5049289;28;20198;-73
2023/05/07 03:37:32;;;;;;;8.40;7.60;;;14.80;99.90;;;;;;5049131;28;20178;-73
2023/05/07 03:39:58;;;;;;;8.27;7.43;;;14.80;99.90;;;;;;5049202;28;20431;-73
2023/05/07 03:42:24;;;;;;;9.70;8.70;;;14.80;99.90;;;;;;5049518;28;20174;-73
2023/05/07 03:44:50;;;;;;;11.20;9.30;;;14.80;99.90;;;;;;5049044;28;20170;-73
2023/05/07 03:47:16;;;;;;;10.43;9.43;;;14.90;99.90;;;;;;5030982;28;20919;-73
2023/05/07 03:49:41;;;;;;;10.90;9.90;;;14.80;99.90;;;;;;5049043;28;20208;-73
2023/05/07 03:52:07;;;;;;;13.47;12.17;;;14.80;99.90;;;;;;5049362;28;20236;-74
2023/05/07 03:54:32;;;;;;;12.80;11.63;;;14.80;99.90;;;;;;5048484;28;20213;-73
2023/05/07 03:56:58;;;;;;;13.13;11.90;;;14.80;99.90;;;;;;5048966;28;20189;-73
2023/05/07 03:59:24;;;;;;;14.73;13.30;;;14.80;99.90;;;;;;5048740;28;20704;-73
2023/05/07 04:01:50;;;;;;;15.00;13.67;;;14.90;99.90;;;;;;5049119;28;20256;-73
2023/05/07 04:04:15;;;;;;;13.47;12.17;;;14.80;99.90;;;;;;5030941;28;20185;-73
2023/05/07 04:06:41;;;;;;;14.43;13.13;;;14.80;99.90;;;;;;5045312;28;20291;-73
2023/05/07 04:09:07;;;;;;;16.07;14.63;;;14.80;99.90;;;;;;5042434;28;20260;-72
2023/05/07 04:11:33;;;;;;;19.70;16.17;;;14.90;99.90;;;;;;5039900;28;20262;-73
2023/05/07 04:13:59;;;;;;;18.37;16.67;;;14.80;99.90;;;;;;5048238;28;20487;-72
2023/05/07 04:16:25;;;;;;;18.10;16.40;;;14.80;99.90;;;;;;5048420;28;20688;-73
2023/05/07 04:18:50;;;;;;;18.97;17.13;;;14.80;99.90;;;;;;5046594;28;20424;-74
2023/05/07 04:21:20;;;;;;;19.27;17.37;;;14.80;99.90;;;;;;5043268;28;20617;-73
2023/05/07 04:23:49;;;;;;;19.37;17.37;;;14.80;99.90;;;;;;5040300;28;20186;-73
2023/05/07 04:26:15;;;;;;;18.87;17.07;;;14.80;99.90;;;;;;5048592;28;20459;-73
2023/05/07 04:28:41;;;;;;;19.67;17.53;;;14.80;99.90;;;;;;5047539;28;20416;-73
2023/05/07 04:31:07;;;;;;;18.67;16.87;;;14.80;99.90;;;;;;5030602;28;20456;-73
2023/05/07 04:33:33;;;;;;;20.17;16.83;;;14.90;99.90;;;;;;5040993;28;20511;-73
2023/05/07 04:36:05;;;;;;;18.13;16.50;;;14.90;99.90;;;;;;5027371;28;20524;-73
2023/05/07 04:38:34;;;;;;;17.97;16.37;;;14.90;99.90;;;;;;5028252;28;20420;-73
2023/05/07 04:41:05;;;;;;;16.80;15.20;;;14.90;99.90;;;;;;5028401;28;20421;-74
2023/05/07 04:43:31;;;;;;;16.20;14.50;;;14.90;99.90;;;;;;5043581;28;20864;-73
2023/05/07 04:45:57;;;;;;;16.20;14.53;;;14.90;99.90;;;;;;5044860;28;20530;-73
2023/05/07 04:48:22;;;;;;;15.33;13.83;;;14.90;99.90;;;;;;5029918;28;20518;-74
2023/05/07 04:50:52;;;;;;;16.57;14.73;;;15.00;99.90;;;;;;5048220;28;20216;-73
2023/05/07 04:53:18;;;;;;;14.53;13.13;;;14.90;99.90;;;;;;5047944;28;20208;-73
2023/05/07 04:55:45;;;;;;;15.43;13.87;;;14.90;99.90;;;;;;5048306;28;21007;-73
2023/05/07 04:58:11;;;;;;;16.33;14.73;;;15.00;99.90;;;;;;5047980;28;20428;-73
2023/05/07 05:00:38;;;;;;;16.13;14.53;;;15.00;99.90;;;;;;5048016;28;20404;-73
2023/05/07 05:03:05;;;;;;;19.83;14.20;;;15.00;99.90;;;;;;5048102;28;20726;-73
2023/05/07 05:05:30;;;;;;;15.30;13.80;;;15.00;99.90;;;;;;5041850;28;20460;-74
2023/05/07 05:07:56;;;;;;;15.33;13.93;;;15.00;99.90;;;;;;5031735;28;20794;-73
2023/05/07 05:10:22;;;;;;;14.37;12.97;;;15.00;99.90;;;;;;5041694;28;20197;-73
2023/05/07 05:12:48;;;;;;;15.07;13.70;;;15.00;99.90;;;;;;5048117;28;20205;-73
2023/05/07 05:15:13;;;;;;;13.47;12.17;;;15.10;99.90;;;;;;5029751;28;20437;-73
2023/05/07 05:17:40;;;;;;;12.73;11.60;;;15.10;99.90;;;;;;5047880;28;20182;-73
2023/05/07 05:20:06;;;;;;;13.63;11.50;;;15.10;99.90;;;;;;5049636;28;20265;-73
2023/05/07 05:22:32;;;;;;;11.87;10.80;;;15.10;99.90;;;;;;5052175;28;20408;-73
2023/05/07 05:24:58;;;;;;;11.93;10.83;;;15.10;99.90;;;;;;5051430;28;20424;-73
2023/05/07 05:27:24;;;;;;;11.27;10.17;;;15.10;99.90;;;;;;5051710;28;20896;-73
2023/05/07 05:29:50;;;;;;;10.47;9.47;;;15.10;99.90;;;;;;5043788;28;20182;-73
2023/05/07 05:32:15;;;;;;;11.63;10.53;;;15.20;99.90;;;;;;5039702;28;21044;-73
2023/05/07 05:34:41;;;;;;;12.50;11.27;;;15.20;99.90;;;;;;5031497;28;20210;-73
2023/05/07 05:37:07;;;;;;;11.70;10.50;;;15.20;99.90;;;;;;5031498;28;20724;-73
2023/05/07 05:39:32;;;;;;;11.57;10.47;;;15.20;99.90;;;;;;5031572;28;20191;-73
2023/05/07 05:41:58;;;;;;;10.57;9.57;;;15.20;99.90;;;;;;5031594;28;20541;-73
2023/05/07 05:44:25;;;;;;;10.70;9.70;;;15.30;99.90;;;;;;5031464;28;20214;-73
2023/05/07 05:46:50;;;;;;;9.30;8.60;;;15.40;99.90;;;;;;5040040;28;20210;-74
2023/05/07 05:49:16;;;;;;;9.63;8.83;;;15.40;99.90;;;;;;5033498;28;20431;-73
2023/05/07 05:51:43;;;;;;;9.20;8.40;;;15.50;99.90;;;;;;5051586;28;20222;-73
2023/05/07 05:54:09;;;;;;;8.80;7.87;;;15.50;99.90;;;;;;5051209;28;20214;-73
2023/05/07 05:56:35;;;;;;;8.50;7.70;;;15.60;99.90;;;;;;5033666;28;20446;-73
2023/05/07 05:59:00;;;;;;;9.23;8.27;;;15.70;99.90;;;;;;5050034;28;20193;-73
2023/05/07 06:01:26;;;;;;;7.70;7.00;;;15.70;99.90;;;;;;5041380;28;20189;-73
2023/05/07 06:03:52;;;;;;;7.07;6.37;;;15.80;99.90;;;;;;5035305;28;20190;-73
2023/05/07 06:06:18;;;;;;;7.27;6.67;;;15.80;99.90;;;;;;5030942;28;20214;-73
2023/05/07 06:08:43;;;;;;;7.53;6.83;;;15.90;99.90;;;;;;5031409;28;20189;-73
2023/05/07 06:11:09;;;;;;;7.07;6.40;;;15.90;99.90;;;;;;5050775;28;20657;-73
2023/05/07 06:13:35;;;;;;;6.23;5.63;;;16.00;99.90;;;;;;5050878;28;20209;-73
2023/05/07 06:16:00;;;;;;;6.30;5.80;;;16.00;99.90;;;;;;5051193;28;20193;-73
2023/05/07 06:18:26;;;;;;;7.97;6.03;;;16.00;99.90;;;;;;5050855;28;20265;-72
2023/05/07 06:20:52;;;;;;;6.70;6.10;;;16.00;99.90;;;;;;5050900;28;20169;-73
2023/05/07 06:23:18;;;;;;;6.13;5.53;;;16.00;99.90;;;;;;5050738;28;20188;-73
2023/05/07 06:25:50;;;;;;;5.60;5.10;;;16.00;99.90;;;;;;5044900;28;20456;-73
2023/05/07 06:28:16;;;;;;;5.87;5.13;;;16.00;99.90;;;;;;5030882;28;20256;-73
2023/05/07 06:30:42;;;;;;;5.60;5.10;;;16.00;99.90;;;;;;5040191;28;20917;-73
2023/05/07 06:33:08;;;;;;;6.07;5.47;;;16.10;99.90;;;;;;5032278;28;20452;-72
2023/05/07 06:35:34;;;;;;;7.07;4.73;;;16.10;99.90;;;;;;5031082;28;20245;-73
2023/05/07 06:38:00;;;;;;;5.30;4.60;;;16.10;99.90;;;;;;5030716;28;20576;-73
2023/05/07 06:40:26;;;;;;;4.40;4.00;;;16.10;99.90;;;;;;5030901;28;20217;-73
2023/05/07 06:42:51;;;;;;;5.37;4.97;;;16.00;99.90;;;;;;5030902;28;20757;-73
2023/05/07 06:45:17;;;;;;;4.37;3.97;;;16.00;99.90;;;;;;5033963;28;20210;-73
2023/05/07 06:47:43;;;;;;;4.50;4.10;;;16.10;99.90;;;;;;5041948;28;20186;-73
2023/05/07 06:50:09;;;;;;;3.67;3.37;;;16.10;99.90;;;;;;5050257;28;20181;-73
2023/05/07 06:52:35;;;;;;;4.37;3.97;;;16.10;99.90;;;;;;5050759;28;20177;-73
2023/05/07 06:55:01;;;;;;;6.20;4.07;;;16.10;99.90;;;;;;5050228;28;20825;-73
2023/05/07 06:57:27;;;;;;;5.30;4.27;;;16.20;99.90;;;;;;5050144;28;20181;-73
2023/05/07 06:59:52;;;;;;;4.87;4.13;;;16.30;99.90;;;;;;5032422;28;20181;-73
2023/05/07 07:02:18;;;;;;;6.40;3.47;;;16.30;99.90;;;;;;5048675;28;20267;-73
2023/05/07 07:04:44;;;;;;;4.40;3.33;;;16.30;99.90;;;;;;5041550;28;20190;-72
2023/05/07 07:07:10;;;;;;;4.50;3.77;;;16.30;99.90;;;;;;5048824;28;20196;-73
2023/05/07 07:09:36;;;;;;;4.93;4.27;;;16.40;99.90;;;;;;5043528;28;20459;-73
2023/05/07 07:12:02;;;;;;;4.20;3.80;;;16.40;99.90;;;;;;5049243;28;20424;-73
2023/05/07 07:14:28;;;;;;;3.73;3.20;;;16.40;99.90;;;;;;5048935;28;20304;-73
2023/05/07 07:16:53;;;;;;;4.63;3.40;;;16.40;99.90;;;;;;5040884;28;20673;-73
2023/05/07 07:19:20;;;;;;;3.93;3.57;;;16.50;99.90;;;;;;5040686;28;20186;-73
2023/05/07 07:21:46;;;;;;;7.23;3.60;;;16.50;99.90;;;;;;5036142;28;20241;-72
2023/05/07 07:24:12;;;;;;;5.20;3.23;;;16.50;99.90;;;;;;5040943;28;20445;-73
2023/05/07 07:26:39;;;;;;;3.70;3.40;;;16.50;99.90;;;;;;5037522;28;21050;-73
2023/05/07 07:29:06;;;;;;;3.73;3.30;;;16.60;99.90;;;;;;5030558;28;20416;-73
2023/05/07 07:31:32;;;;;;;3.67;3.27;;;16.60;99.90;;;;;;5030475;28;20424;-72
2023/05/07 07:33:58;;;;;;;3.80;3.40;;;16.60;99.90;;;;;;5046532;28;21008;-73
2023/05/07 07:36:23;;;;;;;4.00;3.70;;;16.60;99.90;;;;;;5045201;28;20206;-73
2023/05/07 07:38:49;;;;;;;4.80;3.57;;;16.60;99.90;;;;;;5030264;28;20170;-73
2023/05/07 07:41:15;;;;;;;4.30;3.27;;;16.60;99.90;;;;;;5044530;28;20665;-73
2023/05/07 07:43:40;;;;;;;4.53;4.10;;;16.60;99.90;;;;;;5028104;28;20193;-73
2023/05/07 07:46:06;;;;;;;4.43;3.87;;;16.70;99.90;;;;;;5029784;28;20759;-73
2023/05/07 07:48:33;;;;;;;4.73;3.80;;;16.70;99.90;;;;;;5047855;28;20182;-73
2023/05/07 07:50:59;;;;;;;4.20;3.80;;;16.80;99.90;;;;;;5047866;28;20205;-73
2023/05/07 07:53:25;;;;;;;4.13;3.73;;;16.80;99.90;;;;;;5046799;28;20542;-72
2023/05/07 07:55:50;;;;;;;4.57;3.67;;;16.80;99.90;;;;;;5048010;28;20209;-73
2023/05/07 07:58:16;;;;;;;4.67;3.40;;;16.90;99.90;;;;;;5039701;28;20721;-72
2023/05/07 08:00:42;;;;;;;4.93;3.40;;;16.90;99.90;;;;;;5047412;28;20273;-72
2023/05/07 08:03:11;;;;;;;3.10;2.90;;;16.90;99.90;;;;;;5036884;28;20181;-72
2023/05/07 08:05:38;;;;;;;4.00;2.90;;;17.00;99.90;;;;;;5043490;28;20221;-73
2023/05/07 08:08:04;;;;;;;5.20;3.00;;;17.00;99.90;;;;;;5028366;28;20427;-72
2023/05/07 08:10:33;;;;;;;3.60;3.30;;;17.10;99.90;;;;;;5046775;28;20424;-73
2023/05/07 08:12:59;;;;;;;3.53;2.87;;;17.00;99.90;;;;;;5046819;28;20529;-73
2023/05/07 08:15:25;;;;;;;3.17;2.73;;;17.00;99.90;;;;;;5036486;28;20571;-73
2023/05/07 08:17:50;;;;;;;3.57;3.27;;;17.10;99.90;;;;;;5037701;28;20185;-73
2023/05/07 08:20:16;;;;;;;2.73;2.53;;;17.10;99.90;;;;;;5018369;28;20202;-73
2023/05/07 08:22:42;;;;;;;4.33;2.67;;;17.20;99.90;;;;;;5036729;28;20553;-73
2023/05/07 08:25:08;;;;;;;3.90;3.23;;;17.20;99.90;;;;;;5037545;28;20210;-73
2023/05/07 08:27:33;;;;;;;3.60;2.93;;;17.20;99.90;;;;;;5020720;28;20718;-72
2023/05/07 08:29:59;;;;;;;5.27;2.90;;;17.30;99.90;;;;;;5043777;28;20435;-73
2023/05/07 08:32:25;;;;;;;3.30;2.90;;;17.30;99.90;;;;;;5026961;28;20212;-73
2023/05/07 08:34:51;;;;;;;3.13;2.80;;;17.40;99.90;;;;;;5047357;28;20185;-73
2023/05/07 08:37:16;;;;;;;3.17;2.87;;;17.40;99.90;;;;;;5047310;28;20184;-73
2023/05/07 08:39:42;;;;;;;3.70;2.50;;;17.40;99.90;;;;;;5046660;28;20182;-73
2023/05/07 08:42:11;;;;;;;3.80;3.40;;;17.50;99.90;;;;;;5046832;28;20197;-73
2023/05/07 08:44:39;;;;;;;3.63;3.33;;;17.60;99.90;;;;;;5043263;28;21027;-73
2023/05/07 08:47:07;;;;;;;3.67;3.37;;;17.60;99.90;;;;;;5015797;28;20455;-73
2023/05/07 08:49:33;;;;;;;3.47;3.20;;;17.70;99.90;;;;;;5028194;28;20474;-73
2023/05/07 08:52:00;;;;;;;3.27;2.97;;;17.80;99.90;;;;;;5028377;28;20417;-72
2023/05/07 08:54:27;;;;;;;3.73;3.10;;;17.80;99.90;;;;;;5028672;28;20956;-73
2023/05/07 08:56:52;;;;;;;5.03;3.90;;;17.90;99.90;;;;;;5014339;28;20437;-73
2023/05/07 08:59:18;;;;;;;3.80;3.50;;;18.00;99.90;;;;;;5033516;28;20424;-73
2023/05/07 09:01:44;;;;;;;4.60;4.10;;;18.00;99.90;;;;;;5047503;28;20232;-73
2023/05/07 09:04:10;;;;;;;4.30;3.40;;;18.10;99.90;;;;;;5051565;28;20638;-73
2023/05/07 09:06:37;;;;;;;3.70;3.37;;;18.10;99.90;;;;;;5038451;28;20465;-73
2023/05/07 09:09:05;;;;;;;4.20;3.70;;;18.20;99.90;;;;;;5034890;28;20197;-73
2023/05/07 09:11:30;;;;;;;4.97;4.47;;;18.30;99.90;;;;;;5050372;28;20920;-73
2023/05/07 09:13:59;;;;;;;4.60;4.20;;;18.30;99.90;;;;;;5033886;28;20487;-73
2023/05/07 09:16:25;;;;;;;7.13;4.00;;;18.40;99.90;;;;;;5052077;28;20245;-73
2023/05/07 09:18:53;;;;;;;4.57;4.07;;;18.40;99.90;;;;;;5051733;28;20424;-72
2023/05/07 09:21:20;;;;;;;5.57;4.60;;;18.50;99.90;;;;;;5051629;28;20441;-73
2023/05/07 09:23:47;;;;;;;5.83;4.43;;;18.50;99.90;;;;;;5044684;28;20421;-73
2023/05/07 09:26:14;;;;;;;4.70;4.30;;;18.60;99.90;;;;;;5017425;28;20774;-73
2023/05/07 09:28:43;;;;;;;5.20;4.63;;;18.70;99.90;;;;;;5031393;28;20517;-73
2023/05/07 09:31:10;;;;;;;5.50;5.00;;;18.80;99.90;;;;;;5031588;28;20439;-73
2023/05/07 09:33:36;;;;;;;4.77;4.37;;;18.90;99.90;;;;;;5051068;28;20546;-73
2023/05/07 09:36:03;;;;;;;5.23;4.80;;;19.00;99.90;;;;;;5051933;28;20519;-73
2023/05/07 09:38:29;;;;;;;6.40;4.83;;;19.10;99.90;;;;;;5033384;28;20201;-73
2023/05/07 09:41:10;;;;;;;6.00;5.43;;;19.20;99.90;;;;;;5051482;28;20440;-73
2023/05/07 09:43:36;;;;;;;5.33;4.83;;;19.30;99.90;;;;;;5051248;28;20415;-72
2023/05/07 09:46:12;;;;;;;6.53;6.03;;;19.30;99.90;;;;;;5011369;28;20822;-73
2023/05/07 09:48:39;;;;;;;8.73;5.73;;;19.40;99.90;;;;;;5031091;28;20423;-73
2023/05/07 09:51:28;;;;;;;8.97;8.07;;;19.40;99.90;;;;;;5013368;28;20447;-73
2023/05/07 09:53:56;;;;;;;7.23;6.60;;;19.40;99.90;;;;;;5030935;28;20496;-73
2023/05/07 09:56:23;;;;;;;10.30;7.87;;;19.50;99.90;;;;;;5031280;28;20437;-73
2023/05/07 09:58:51;;;;;;;7.17;6.13;;;19.60;99.90;;;;;;5031020;28;20417;-73
2023/05/07 10:01:19;;;;;;;6.43;5.93;;;19.70;99.90;;;;;;5031059;28;20440;-73
2023/05/07 10:03:45;;;;;;;7.00;6.30;;;19.70;99.90;;;;;;5030705;28;20413;-73
2023/05/07 10:06:12;;;;;;;8.63;7.80;;;19.70;99.90;;;;;;5031327;28;20488;-72
2023/05/07 10:08:39;;;;;;;8.13;7.33;;;19.90;99.90;;;;;;5017409;28;20440;-73
2023/05/07 10:11:05;;;;;;;9.83;6.20;;;20.00;99.90;;;;;;5046776;28;20436;-73
2023/05/07 10:13:35;;;;;;;7.00;6.40;;;20.10;99.90;;;;;;5031873;28;20471;-73
2023/05/07 10:16:05;;;;;;;8.90;7.33;;;20.20;99.90;;;;;;5042281;28;20679;-73
2023/05/07 10:18:33;;;;;;;8.50;7.80;;;20.40;99.90;;;;;;5050234;28;20490;-73
2023/05/07 10:21:15;;;;;;;7.80;7.10;;;20.50;99.90;;;;;;5045768;28;20448;-73
2023/05/07 10:23:45;;;;;;;7.53;6.83;;;20.60;99.90;;;;;;5040372;28;20415;-73
2023/05/07 10:26:13;;;;;;;6.23;5.63;;;20.60;99.90;;;;;;5043725;28;20472;-73
2023/05/07 10:28:42;;;;;;;8.70;6.27;;;20.50;99.90;;;;;;5041518;28;20412;-73
2023/05/07 10:31:18;;;;;;;6.77;6.13;;;20.60;99.90;;;;;;5043629;28;20424;-72
2023/05/07 10:33:46;;;;;;;12.23;6.97;;;20.60;99.90;;;;;;5029645;28;20468;-73
2023/05/07 10:36:13;;;;;;;6.53;5.77;;;20.50;99.90;;;;;;5029682;28;20456;-73
2023/05/07 10:38:40;;;;;;;4.87;4.47;;;20.50;99.90;;;;;;5029424;28;20471;-73
2023/05/07 10:41:06;;;;;;;7.97;4.70;;;20.50;99.90;;;;;;5030148;28;20781;-73
2023/05/07 10:43:41;;;;;;;4.90;4.50;;;20.50;99.90;;;;;;5029962;28;20413;-73
2023/05/07 10:46:11;;;;;;;5.10;4.70;;;20.50;99.90;;;;;;5036642;28;20673;-73
2023/05/07 10:49:08;;;;;;;5.13;4.00;;;20.50;99.90;;;;;;5050000;28;20405;-73
2023/05/07 10:51:35;;;;;;;4.83;4.27;;;20.50;99.90;;;;;;5049887;28;20423;-73
2023/05/07 10:54:09;;;;;;;6.43;4.30;;;20.50;99.90;;;;;;5049485;28;20456;-73
2023/05/07 10:56:37;;;;;;;4.27;3.93;;;20.50;99.90;;;;;;5050050;28;20806;-73
2023/05/07 10:59:26;;;;;;;4.77;4.30;;;20.50;99.90;;;;;;5049594;28;20413;-73
2023/05/07 11:02:02;;;;;;;5.47;4.53;;;20.50;99.90;;;;;;5049897;28;20736;-73
2023/05/07 11:04:27;;;;;;;5.73;4.10;;;20.50;99.90;;;;;;5049408;28;20474;-73
2023/05/07 11:07:27;;;;;;;5.80;4.63;;;20.50;99.90;;;;;;5049546;28;20456;-73
2023/05/07 11:09:53;;;;;;;5.60;5.10;;;20.40;99.90;;;;;;5049288;28;20182;-73
2023/05/07 11:12:37;;;;;;;4.90;4.47;;;20.40;99.90;;;;;;5048440;28;20444;-73
2023/05/07 11:15:08;;;;;;;5.33;4.87;;;20.30;99.90;;;;;;5038054;28;20585;-73
2023/05/07 11:17:34;;;;;;;5.70;5.20;;;20.30;99.90;;;;;;5047636;28;20415;-73
2023/05/07 11:20:02;;;;;;;5.00;4.50;;;20.30;99.90;;;;;;5037191;28;21000;-73
2023/05/07 11:22:30;;;;;;;5.63;5.07;;;20.20;99.90;;;;;;5031574;28;20890;-73
2023/05/07 11:24:58;;;;;;;5.97;5.43;;;20.20;99.90;;;;;;5049121;28;20894;-73
2023/05/07 11:27:25;;;;;;;6.30;5.60;;;20.20;99.90;;;;;;5049136;28;20580;-73
2023/05/07 11:29:51;;;;;;;6.10;5.37;;;20.20;99.90;;;;;;5048911;28;20432;-73
2023/05/07 11:32:23;;;;;;;6.53;5.93;;;20.10;99.90;;;;;;5048993;28;20432;-73
2023/05/07 11:34:52;;;;;;;6.93;6.33;;;20.10;99.90;;;;;;5038473;28;20210;-74
2023/05/07 11:37:19;;;;;;;6.17;5.67;;;20.10;99.90;;;;;;5046744;28;20429;-74
2023/05/07 11:39:45;;;;;;;6.20;5.60;;;20.10;99.90;;;;;;5036724;28;20440;-73
2023/05/07 11:42:49;;;;;;;7.00;6.40;;;20.10;99.90;;;;;;5040879;28;20818;-73
2023/05/07 11:45:25;;;;;;;7.10;6.40;;;20.10;99.90;;;;;;4947872;29;20201;-73
2023/05/07 11:47:50;;;;;;;8.80;7.90;;;20.00;99.90;;;;;;4948031;29;20421;-73
2023/05/07 11:50:16;;;;;;;6.80;6.20;;;20.00;99.90;;;;;;4973668;28;20479;-73
2023/05/07 11:52:52;;;;;;;8.00;7.30;;;20.00;99.90;;;;;;5031211;28;20692;-74
2023/05/07 11:55:18;;;;;;;9.57;8.17;;;20.00;99.90;;;;;;5041694;28;20205;-74
2023/05/07 11:57:45;;;;;;;7.63;6.93;;;20.00;99.90;;;;;;5043092;28;20470;-74
2023/05/07 12:00:11;;;;;;;8.50;7.40;;;20.00;99.90;;;;;;5038454;28;20539;-73
2023/05/07 12:02:36;;;;;;;8.80;8.00;;;20.00;99.90;;;;;;5044386;28;20440;-74
2023/05/07 12:05:02;;;;;;;7.40;6.80;;;20.00;99.90;;;;;;5039384;28;20477;-74
2023/05/07 12:07:28;;;;;;;7.80;7.13;;;20.10;99.90;;;;;;5044247;28;20225;-74
2023/05/07 12:09:53;;;;;;;7.10;6.40;;;20.10;99.90;;;;;;5038355;28;20865;-74
2023/05/07 12:12:19;;;;;;;8.60;7.80;;;20.20;99.90;;;;;;5040054;28;20585;-74
2023/05/07 12:14:45;;;;;;;8.30;7.50;;;20.20;99.90;;;;;;5036754;28;20248;-73
2023/05/07 12:17:13;;;;;;;9.93;9.13;;;20.20;99.90;;;;;;5046239;28;20250;-73
2023/05/07 12:19:40;;;;;;;6.60;6.10;;;20.20;99.90;;;;;;5048079;28;20427;-73
2023/05/07 12:22:07;;;;;;;7.50;6.60;;;20.10;99.90;;;;;;5046886;28;20455;-73
2023/05/07 12:25:03;;;;;;;8.10;7.40;;;20.10;99.90;;;;;;5036093;28;20421;-74
2023/05/07 12:27:28;;;;;;;8.67;7.87;;;20.10;99.90;;;;;;5022082;28;20465;-73
2023/05/07 12:29:57;;;;;;;8.83;7.90;;;20.10;99.90;;;;;;5043449;28;20443;-74
2023/05/07 12:32:22;;;;;;;9.13;7.97;;;20.10;99.90;;;;;;5047885;28;20185;-73
2023/05/07 12:34:52;;;;;;;8.17;7.47;;;20.00;99.90;;;;;;5047626;28;20452;-73
2023/05/07 12:37:24;;;;;;;8.77;7.90;;;20.10;99.90;;;;;;5047592;28;20297;-73
2023/05/07 12:40:07;;;;;;;8.80;8.00;;;20.10;99.90;;;;;;5039356;28;20416;-73
2023/05/07 12:42:37;;;;;;;9.87;7.53;;;20.00;99.90;;;;;;5048120;28;20991;-73